KMYV/MYV METAR and TAF weather

Enter ICAO airport designator
Station Type Date Time Source
KMYV METAR 2019/12/12 08:53 UTC NOAA

KMYV 120853Z AUTO 14006KT 7SM OVC035 12/11 A3020 RMK AO2 RAE10B14E42 SLP229 P0000 60003 T01220106 55009


Station Type Date Time Source
KMYV Decoded METAR 2019/12/12 08:53 UTC NOAA

MARYSVILLE YUBA COUNTY, CA, United States (KMYV) 39-06N 121-34W 21M
Dec 12, 2019 - 03:53 AM EST / 2019.12.12 0853 UTC
Wind: from the SE (140 degrees) at 7 MPH (6 KT):0
Visibility: 7 mile(s):0
Sky conditions: overcast
Precipitation last hour: A trace
Temperature: 54.0 F (12.2 C)
Dew Point: 51.1 F (10.6 C)
Relative Humidity: 89%
Pressure (altimeter): 30.2 in. Hg (1022 hPa)
Pressure tendency: 0.03 inches (0.9 hPa) lower than three hours ago
ob: KMYV 120853Z AUTO 14006KT 7SM OVC035 12/11 A3020 RMK AO2 RAE10B14E42 SLP229 P0000 60003 T01220106 55009
cycle: 9

Station Type Date Time Source
KMYV TAF UTC NOAA

Error!

Example: see airport list